createdAt,value
2016-08-31T00:00:28.331Z,25.09
2016-08-31T00:01:27.979Z,25.09
2016-08-31T00:02:28.443Z,25.1
2016-08-31T00:03:28.350Z,25.05
2016-08-31T00:04:26.943Z,25.03
2016-08-31T00:05:27.854Z,25.09
2016-08-31T00:06:28.371Z,25.06
2016-08-31T00:07:27.670Z,25.17
2016-08-31T00:08:27.677Z,25.09
2016-08-31T00:09:27.888Z,25.14
2016-08-31T00:10:28.797Z,25.09
2016-08-31T00:11:27.697Z,25.14
2016-08-31T00:12:28.561Z,25.09
2016-08-31T00:13:27.009Z,25.23
2016-08-31T00:14:27.725Z,25.13
2016-08-31T00:15:27.024Z,25.09
2016-08-31T00:16:27.031Z,25.08
2016-08-31T00:17:28.455Z,25.09
2016-08-31T00:18:27.756Z,25.13
2016-08-31T00:19:27.608Z,25.08
2016-08-31T00:20:28.476Z,25.09
2016-08-31T00:21:27.773Z,25.13
2016-08-31T00:22:27.789Z,25.13
2016-08-31T00:23:27.788Z,25.02
2016-08-31T00:24:28.504Z,25.02
2016-08-31T00:25:28.511Z,25.08
2016-08-31T00:26:28.527Z,25
2016-08-31T00:27:27.122Z,25
2016-08-31T00:28:28.536Z,24.99
2016-08-31T00:29:27.123Z,25
2016-08-31T00:30:27.843Z,24.96
2016-08-31T00:31:27.847Z,25.06
2016-08-31T00:32:27.851Z,25.02
2016-08-31T00:33:27.864Z,25.08
2016-08-31T00:34:27.884Z,25.08
2016-08-31T00:35:27.885Z,25.02
2016-08-31T00:36:27.886Z,25.02
2016-08-31T00:37:27.892Z,25.05
2016-08-31T00:38:28.609Z,24.96
2016-08-31T00:39:27.907Z,25.02
2016-08-31T00:40:27.927Z,24.95
2016-08-31T00:41:28.175Z,24.99
2016-08-31T00:42:27.222Z,25.05
2016-08-31T00:43:28.644Z,25.1
2016-08-31T00:44:27.236Z,25
2016-08-31T00:45:29.608Z,25.09
2016-08-31T00:46:28.666Z,25.09
2016-08-31T00:47:28.671Z,25.05
2016-08-31T00:48:27.266Z,25.02
2016-08-31T00:49:27.989Z,25.05
2016-08-31T00:50:28.693Z,25.08
2016-08-31T00:51:27.285Z,25.02
2016-08-31T00:52:28.447Z,25.03
2016-08-31T00:53:27.300Z,25.1
2016-08-31T00:54:28.161Z,25.05
2016-08-31T00:55:28.731Z,25
2016-08-31T00:56:28.741Z,25.08
2016-08-31T00:57:28.762Z,25.06
2016-08-31T00:58:28.051Z,25.06
2016-08-31T00:59:28.763Z,25.1
2016-08-31T01:00:28.770Z,25.02
2016-08-31T01:01:28.783Z,25.08
2016-08-31T01:02:28.075Z,25.15
2016-08-31T01:03:29.233Z,25.08
2016-08-31T01:04:27.383Z,25.09
2016-08-31T01:05:28.847Z,24.99
2016-08-31T01:06:27.395Z,25.08
2016-08-31T01:07:27.404Z,25.03
2016-08-31T01:08:28.123Z,24.98
2016-08-31T01:09:28.127Z,25.08
2016-08-31T01:10:27.479Z,24.99
2016-08-31T01:11:28.847Z,24.99
2016-08-31T01:12:28.856Z,24.99
2016-08-31T01:13:28.156Z,25
2016-08-31T01:14:29.585Z,24.99
2016-08-31T01:15:28.881Z,24.93
2016-08-31T01:16:29.377Z,25.02
2016-08-31T01:17:27.478Z,24.98
2016-08-31T01:18:28.193Z,24.9
2016-08-31T01:19:27.495Z,24.87
2016-08-31T01:20:28.922Z,24.81
2016-08-31T01:21:28.213Z,24.83
2016-08-31T01:22:27.510Z,24.88
2016-08-31T01:23:28.228Z,24.85
2016-08-31T01:24:28.943Z,24.78
2016-08-31T01:25:28.248Z,24.91
2016-08-31T01:26:28.954Z,24.93
2016-08-31T01:27:29.754Z,24.42
2016-08-31T01:28:28.265Z,24.2
2016-08-31T01:29:28.267Z,24.35
2016-08-31T01:30:28.276Z,24.52
2016-08-31T01:31:28.987Z,24.58
2016-08-31T01:32:27.575Z,24.73
2016-08-31T01:33:28.292Z,24.77
2016-08-31T01:34:29.003Z,24.73
2016-08-31T01:35:28.301Z,24.77
2016-08-31T01:36:28.525Z,24.77
2016-08-31T01:37:29.022Z,24.69
2016-08-31T01:38:30.301Z,24.71
2016-08-31T01:39:28.328Z,24.78
2016-08-31T01:40:27.633Z,24.76
2016-08-31T01:41:28.346Z,24.87
2016-08-31T01:42:27.649Z,24.8
2016-08-31T01:43:28.358Z,24.69
2016-08-31T01:44:29.070Z,24.64
2016-08-31T01:45:28.366Z,24.69
2016-08-31T01:46:29.085Z,24.69
2016-08-31T01:47:28.882Z,24.69
2016-08-31T01:48:29.145Z,24.67
2016-08-31T01:49:28.444Z,24.87
2016-08-31T01:50:29.106Z,24.77
2016-08-31T01:51:28.411Z,24.83
2016-08-31T01:52:29.119Z,24.88
2016-08-31T01:53:27.711Z,24.85
2016-08-31T01:54:29.133Z,24.96
2016-08-31T01:56:27.734Z,24.98
2016-08-31T01:57:29.153Z,24.96
2016-08-31T01:58:29.919Z,24.99
2016-08-31T01:59:28.463Z,24.88
2016-08-31T02:00:29.174Z,24.99
2016-08-31T02:01:28.490Z,25.08
2016-08-31T02:02:29.187Z,25.02
2016-08-31T02:03:28.486Z,25.03
2016-08-31T02:04:28.504Z,24.98
2016-08-31T02:05:28.518Z,25.02
2016-08-31T02:06:28.559Z,25.02
2016-08-31T02:07:28.513Z,24.85
2016-08-31T02:08:27.880Z,24.95
2016-08-31T02:09:27.823Z,24.8
2016-08-31T02:10:28.592Z,24.91
2016-08-31T02:11:29.646Z,24.88
2016-08-31T02:12:28.609Z,24.95
2016-08-31T02:13:27.851Z,24.83
2016-08-31T02:14:29.269Z,24.84
2016-08-31T02:15:27.919Z,24.88
2016-08-31T02:16:29.286Z,24.84
2016-08-31T02:17:27.880Z,24.93
2016-08-31T02:18:28.590Z,24.91
2016-08-31T02:19:29.308Z,24.95
2016-08-31T02:20:27.897Z,24.91
2016-08-31T02:21:29.323Z,24.84
2016-08-31T02:22:27.914Z,24.93
2016-08-31T02:23:29.337Z,24.87
2016-08-31T02:24:28.630Z,24.91
2016-08-31T02:25:28.863Z,24.93
2016-08-31T02:26:28.656Z,24.9
2016-08-31T02:27:28.658Z,24.9
2016-08-31T02:28:29.368Z,24.98
2016-08-31T02:29:28.669Z,24.84
2016-08-31T02:30:29.381Z,24.88
2016-08-31T02:31:29.389Z,24.81
2016-08-31T02:32:28.690Z,24.85
2016-08-31T02:33:29.646Z,24.87
2016-08-31T02:34:27.999Z,24.83
2016-08-31T02:35:28.720Z,24.91
2016-08-31T02:36:29.423Z,24.83
2016-08-31T02:37:28.020Z,24.81
2016-08-31T02:38:28.730Z,24.87
2016-08-31T02:39:29.449Z,24.84
2016-08-31T02:40:28.744Z,24.84
2016-08-31T02:41:28.044Z,24.9
2016-08-31T02:42:29.470Z,24.96
2016-08-31T02:43:29.475Z,24.95
2016-08-31T02:44:28.068Z,24.95
2016-08-31T02:45:29.495Z,24.93
2016-08-31T02:46:29.498Z,24.88
2016-08-31T02:47:28.848Z,25.03
2016-08-31T02:48:28.804Z,24.99
2016-08-31T02:49:29.522Z,25.02
2016-08-31T02:50:29.528Z,24.91
2016-08-31T02:51:29.581Z,24.87
2016-08-31T02:52:28.128Z,24.88
2016-08-31T02:53:29.549Z,24.93
2016-08-31T02:54:28.844Z,24.83
2016-08-31T02:55:28.854Z,24.84
2016-08-31T02:56:28.861Z,24.9
2016-08-31T02:57:29.583Z,24.9
2016-08-31T02:58:29.583Z,24.91
2016-08-31T02:59:29.589Z,24.85
2016-08-31T03:00:28.893Z,24.84
2016-08-31T03:01:28.900Z,24.85
2016-08-31T03:02:29.613Z,24.81
2016-08-31T03:03:29.621Z,24.87
2016-08-31T03:04:29.320Z,24.83
2016-08-31T03:05:28.925Z,24.87
2016-08-31T03:06:29.655Z,24.87
2016-08-31T03:07:28.943Z,24.84
2016-08-31T03:08:28.996Z,24.83
2016-08-31T03:09:28.956Z,24.81
2016-08-31T03:10:28.966Z,24.88
2016-08-31T03:11:28.974Z,24.76
2016-08-31T03:12:28.280Z,24.81
2016-08-31T03:13:29.696Z,24.81
2016-08-31T03:14:28.996Z,24.78
2016-08-31T03:15:28.396Z,24.73
2016-08-31T03:16:29.013Z,24.8
2016-08-31T03:17:29.515Z,24.68
2016-08-31T03:18:28.316Z,24.77
2016-08-31T03:19:29.030Z,24.68
2016-08-31T03:20:29.745Z,24.77
2016-08-31T03:21:29.753Z,24.69
2016-08-31T03:22:29.070Z,24.77
2016-08-31T03:23:29.111Z,24.77
2016-08-31T03:24:29.068Z,24.76
2016-08-31T03:25:29.078Z,24.73
2016-08-31T03:26:28.378Z,24.76
2016-08-31T03:27:29.799Z,24.81
2016-08-31T03:28:30.052Z,24.71
2016-08-31T03:29:29.107Z,24.68
2016-08-31T03:30:29.819Z,24.71
2016-08-31T03:31:29.122Z,24.76
2016-08-31T03:32:29.127Z,24.71
2016-08-31T03:33:29.135Z,24.65
2016-08-31T03:34:29.146Z,24.65
2016-08-31T03:35:29.856Z,24.67
2016-08-31T03:36:28.447Z,24.69
2016-08-31T03:37:28.810Z,24.62
2016-08-31T03:38:28.464Z,24.64
2016-08-31T03:39:30.754Z,24.6
2016-08-31T03:40:29.190Z,24.71
2016-08-31T03:41:28.494Z,24.61
2016-08-31T03:42:29.204Z,24.65
2016-08-31T03:43:29.916Z,24.61
2016-08-31T03:44:29.924Z,24.62
2016-08-31T03:45:29.234Z,24.67
2016-08-31T03:46:28.526Z,24.65
2016-08-31T03:47:29.946Z,24.58
2016-08-31T03:48:29.955Z,24.6
2016-08-31T03:49:28.550Z,24.71
2016-08-31T03:50:28.554Z,24.71
2016-08-31T03:51:29.284Z,24.73
2016-08-31T03:52:29.278Z,24.62
2016-08-31T03:53:29.333Z,24.58
2016-08-31T03:54:29.300Z,24.61
2016-08-31T03:55:28.593Z,24.62
2016-08-31T03:56:30.010Z,24.6
2016-08-31T03:57:29.321Z,24.64
2016-08-31T03:58:30.029Z,24.55
2016-08-31T03:59:29.779Z,24.62
2016-08-31T04:00:28.629Z,24.64
2016-08-31T04:01:29.347Z,24.64
2016-08-31T04:02:29.347Z,24.6
2016-08-31T04:03:29.360Z,24.62
2016-08-31T04:04:29.368Z,24.64
2016-08-31T04:05:29.373Z,24.6
2016-08-31T04:06:28.687Z,24.57
2016-08-31T04:07:30.101Z,24.62
2016-08-31T04:08:29.446Z,24.64
2016-08-31T04:09:29.455Z,24.58
2016-08-31T04:10:30.615Z,24.58
2016-08-31T04:11:28.769Z,24.67
2016-08-31T04:12:30.342Z,24.6
2016-08-31T04:13:30.145Z,24.65
2016-08-31T04:14:30.148Z,24.6
2016-08-31T04:15:29.457Z,24.6
2016-08-31T04:16:29.449Z,24.61
2016-08-31T04:17:28.802Z,24.62
2016-08-31T04:18:30.178Z,24.55
2016-08-31T04:19:29.474Z,24.53
2016-08-31T04:20:28.776Z,24.55
2016-08-31T04:21:31.260Z,24.61
2016-08-31T04:22:30.207Z,24.57
2016-08-31T04:23:30.159Z,24.55
2016-08-31T04:24:29.521Z,24.53
2016-08-31T04:25:29.517Z,24.55
2016-08-31T04:26:30.238Z,24.52
2016-08-31T04:27:30.244Z,24.58
2016-08-31T04:28:29.538Z,24.57
2016-08-31T04:29:29.556Z,24.55
2016-08-31T04:30:29.657Z,24.53
2016-08-31T04:31:30.271Z,24.57
2016-08-31T04:32:31.654Z,24.53
2016-08-31T04:33:29.581Z,24.58
2016-08-31T04:34:31.294Z,24.53
2016-08-31T04:35:28.889Z,24.53
2016-08-31T04:36:29.601Z,24.53
2016-08-31T04:37:29.613Z,24.53
2016-08-31T04:38:29.619Z,24.53
2016-08-31T04:39:29.620Z,24.6
2016-08-31T04:40:28.925Z,24.58
2016-08-31T04:41:30.292Z,24.57
2016-08-31T04:42:28.948Z,24.52
2016-08-31T04:43:29.452Z,24.47
2016-08-31T04:44:29.659Z,24.58
2016-08-31T04:45:29.664Z,24.57
2016-08-31T04:46:30.382Z,24.53
2016-08-31T04:47:28.974Z,24.49
2016-08-31T04:48:30.394Z,24.53
2016-08-31T04:49:30.403Z,24.52
2016-08-31T04:50:29.706Z,24.52
2016-08-31T04:51:30.418Z,24.57
2016-08-31T04:52:30.166Z,24.52
2016-08-31T04:53:30.440Z,24.47
2016-08-31T04:54:30.583Z,24.55
2016-08-31T04:55:29.740Z,24.55
2016-08-31T04:56:29.749Z,24.53
2016-08-31T04:57:29.754Z,24.52
2016-08-31T04:58:29.760Z,24.57
2016-08-31T04:59:29.063Z,24.52
2016-08-31T05:00:30.497Z,24.5
2016-08-31T05:01:29.785Z,24.53
2016-08-31T05:02:30.500Z,24.5
2016-08-31T05:03:30.567Z,24.47
2016-08-31T05:04:30.513Z,24.5
2016-08-31T05:05:30.313Z,24.55
2016-08-31T05:06:29.820Z,24.5
2016-08-31T05:07:30.582Z,24.57
2016-08-31T05:08:29.837Z,24.5
2016-08-31T05:09:30.549Z,24.53
2016-08-31T05:10:29.148Z,24.52
2016-08-31T05:11:30.613Z,24.57
2016-08-31T05:12:29.916Z,24.53
2016-08-31T05:13:30.583Z,24.57
2016-08-31T05:14:30.187Z,24.52
2016-08-31T05:15:29.937Z,24.58
2016-08-31T05:16:29.895Z,24.6
2016-08-31T05:17:30.606Z,24.55
2016-08-31T05:18:29.203Z,24.52
2016-08-31T05:19:29.920Z,24.5
2016-08-31T05:20:29.925Z,24.62
2016-08-31T05:21:29.982Z,24.62
2016-08-31T05:22:29.936Z,24.65
2016-08-31T05:23:29.944Z,24.71
2016-08-31T05:24:30.662Z,24.65
2016-08-31T05:25:29.856Z,24.67
2016-08-31T05:26:30.675Z,24.62
2016-08-31T05:27:29.978Z,24.67
2016-08-31T05:28:30.691Z,24.67
2016-08-31T05:29:29.989Z,24.65
2016-08-31T05:30:29.292Z,24.68
2016-08-31T05:31:29.302Z,24.67
2016-08-31T05:32:30.012Z,24.68
2016-08-31T05:33:29.366Z,24.67
2016-08-31T05:34:30.734Z,24.69
2016-08-31T05:35:30.036Z,24.73
2016-08-31T05:36:30.458Z,24.61
2016-08-31T05:37:30.049Z,24.71
2016-08-31T05:38:30.926Z,24.64
2016-08-31T05:39:29.358Z,24.62
2016-08-31T05:40:30.092Z,24.71
2016-08-31T05:41:29.380Z,24.65
2016-08-31T05:42:30.796Z,24.67
2016-08-31T05:43:30.092Z,24.71
2016-08-31T05:44:30.112Z,24.67
2016-08-31T05:45:30.837Z,24.68
2016-08-31T05:46:30.118Z,24.73
2016-08-31T05:47:30.833Z,24.77
2016-08-31T05:48:30.849Z,24.71
2016-08-31T05:49:31.253Z,24.76
2016-08-31T05:50:30.865Z,24.8
2016-08-31T05:51:30.609Z,24.81
2016-08-31T05:52:30.869Z,24.68
2016-08-31T05:53:30.878Z,24.73
2016-08-31T05:54:29.473Z,24.91
2016-08-31T05:55:30.987Z,24.84
2016-08-31T05:56:30.908Z,24.84
2016-08-31T05:57:30.905Z,24.81
2016-08-31T05:58:30.923Z,24.81
2016-08-31T05:59:30.366Z,24.83
2016-08-31T06:00:31.501Z,24.84
2016-08-31T06:01:30.936Z,24.88
2016-08-31T06:02:45.121Z,24.85
2016-08-31T06:03:29.539Z,24.83
2016-08-31T06:04:30.256Z,24.84
2016-08-31T06:05:30.261Z,24.83
2016-08-31T06:06:30.975Z,24.96
2016-08-31T06:07:30.274Z,24.9
2016-08-31T06:08:30.283Z,24.93
2016-08-31T06:09:30.293Z,24.87
2016-08-31T06:10:31.011Z,24.91
2016-08-31T06:11:31.820Z,24.95
2016-08-31T06:12:31.070Z,24.91
2016-08-31T06:13:31.027Z,24.91
2016-08-31T06:14:31.055Z,24.96
2016-08-31T06:15:31.098Z,25.03
2016-08-31T06:16:30.394Z,24.99
2016-08-31T06:17:30.351Z,25.02
2016-08-31T06:18:31.066Z,24.96
2016-08-31T06:19:29.661Z,24.99
2016-08-31T06:20:31.077Z,25.02
2016-08-31T06:21:30.434Z,25
2016-08-31T06:22:31.542Z,25.09
2016-08-31T06:23:30.396Z,25.08
2016-08-31T06:24:30.658Z,25.09
2016-08-31T06:25:31.120Z,25.09
2016-08-31T06:26:30.419Z,25.15
2016-08-31T06:27:29.723Z,25.08
2016-08-31T06:28:29.732Z,25.13
2016-08-31T06:29:30.442Z,25.09
2016-08-31T06:30:30.454Z,25.15
2016-08-31T06:31:29.753Z,25.28
2016-08-31T06:32:30.469Z,25.27
2016-08-31T06:33:31.627Z,25.39
2016-08-31T06:34:30.487Z,25.39
2016-08-31T06:35:30.530Z,25.38
2016-08-31T06:36:29.791Z,25.42
2016-08-31T06:37:31.560Z,25.54
2016-08-31T06:38:31.277Z,25.54
2016-08-31T06:39:30.522Z,25.64
2016-08-31T06:40:31.239Z,25.7
2016-08-31T06:41:29.834Z,25.77
2016-08-31T06:42:31.271Z,25.92
2016-08-31T06:43:31.262Z,25.97
2016-08-31T06:44:31.116Z,26.06
2016-08-31T06:45:29.872Z,26.09
2016-08-31T06:46:30.585Z,26.25
2016-08-31T06:47:30.617Z,26.23
2016-08-31T06:48:31.710Z,26.29
2016-08-31T06:49:30.611Z,26.43
2016-08-31T06:50:30.624Z,26.37
2016-08-31T06:51:30.639Z,26.45
2016-08-31T06:52:30.641Z,26.51
2016-08-31T06:53:30.651Z,26.52
2016-08-31T06:54:29.961Z,26.52
2016-08-31T06:55:30.728Z,26.65
2016-08-31T06:56:30.727Z,26.63
2016-08-31T06:57:32.517Z,26.52
2016-08-31T06:58:30.714Z,26.4
2016-08-31T06:59:31.159Z,26.25
2016-08-31T07:00:30.835Z,26.12
2016-08-31T07:01:31.493Z,25.99
2016-08-31T07:02:30.757Z,25.92
2016-08-31T07:03:30.750Z,25.9
2016-08-31T07:04:30.313Z,25.95
2016-08-31T07:05:31.483Z,25.97
2016-08-31T07:06:30.778Z,25.85
2016-08-31T07:07:31.497Z,25.87
2016-08-31T07:08:32.335Z,25.85
2016-08-31T07:09:30.806Z,25.79
2016-08-31T07:10:31.103Z,25.85
2016-08-31T07:11:30.822Z,25.8
2016-08-31T07:12:30.122Z,25.88
2016-08-31T07:13:30.145Z,25.85
2016-08-31T07:14:31.554Z,25.77
2016-08-31T07:15:31.616Z,25.8
2016-08-31T07:16:30.865Z,25.82
2016-08-31T07:17:31.627Z,25.76
2016-08-31T07:18:30.877Z,25.73
2016-08-31T07:19:30.198Z,25.73
2016-08-31T07:20:30.895Z,25.7
2016-08-31T07:21:31.150Z,25.72
2016-08-31T07:22:30.915Z,25.75
2016-08-31T07:23:30.211Z,25.7
2016-08-31T07:24:30.930Z,25.72
2016-08-31T07:25:31.693Z,25.7
2016-08-31T07:26:31.647Z,25.72
2016-08-31T07:27:30.247Z,25.73
2016-08-31T07:28:30.964Z,25.64
2016-08-31T07:29:31.682Z,25.69
2016-08-31T07:30:31.390Z,25.69
2016-08-31T07:31:30.281Z,25.57
2016-08-31T07:32:31.701Z,25.65
2016-08-31T07:33:31.005Z,25.69
2016-08-31T07:34:32.058Z,25.69
2016-08-31T07:35:31.014Z,25.69
2016-08-31T07:36:30.318Z,25.61
2016-08-31T07:37:31.737Z,25.6
2016-08-31T07:38:31.034Z,25.6
2016-08-31T07:39:31.762Z,25.52
2016-08-31T07:40:30.346Z,25.61
2016-08-31T07:41:31.059Z,25.51
2016-08-31T07:42:30.366Z,25.58
2016-08-31T07:43:31.094Z,25.54
2016-08-31T07:44:31.083Z,25.57
2016-08-31T07:45:32.246Z,25.65
2016-08-31T07:46:31.115Z,25.57
2016-08-31T07:47:30.405Z,25.61
2016-08-31T07:48:31.132Z,25.61
2016-08-31T07:49:31.124Z,25.58
2016-08-31T07:50:31.889Z,25.61
2016-08-31T07:51:30.484Z,25.58
2016-08-31T07:52:31.150Z,25.6
2016-08-31T07:53:31.161Z,25.55
2016-08-31T07:54:33.092Z,25.5
2016-08-31T07:55:31.175Z,25.54
2016-08-31T07:56:32.290Z,25.51
2016-08-31T07:57:31.197Z,25.58
2016-08-31T07:58:31.353Z,25.47
2016-08-31T07:59:31.204Z,25.55
2016-08-31T08:00:31.212Z,25.57
2016-08-31T08:01:31.223Z,25.57
2016-08-31T08:02:30.571Z,25.61
2016-08-31T08:03:30.699Z,25.47
2016-08-31T08:04:30.623Z,25.52
2016-08-31T08:05:32.925Z,25.62
2016-08-31T08:06:30.618Z,25.57
2016-08-31T08:07:32.033Z,25.64
2016-08-31T08:08:30.667Z,25.5
2016-08-31T08:09:31.281Z,25.6
2016-08-31T08:10:31.340Z,25.52
2016-08-31T08:11:32.085Z,25.58
2016-08-31T08:12:32.072Z,25.54
2016-08-31T08:13:31.387Z,25.47
2016-08-31T08:14:32.130Z,25.51
2016-08-31T08:15:31.416Z,25.5
2016-08-31T08:16:31.427Z,25.52
2016-08-31T08:17:32.151Z,25.5
2016-08-31T08:18:32.109Z,25.55
2016-08-31T08:19:32.065Z,25.51
2016-08-31T08:20:32.659Z,25.54
2016-08-31T08:21:32.082Z,25.54
2016-08-31T08:22:31.451Z,25.51
2016-08-31T08:23:32.097Z,25.54
2016-08-31T08:24:32.123Z,25.6
2016-08-31T08:25:30.698Z,25.55
2016-08-31T08:26:32.122Z,25.47
2016-08-31T08:27:32.128Z,25.51
2016-08-31T08:28:32.137Z,25.47
2016-08-31T08:29:32.493Z,25.46
2016-08-31T08:30:32.154Z,25.61
2016-08-31T08:31:33.226Z,25.58
2016-08-31T08:32:32.170Z,25.45
2016-08-31T08:33:32.666Z,25.54
2016-08-31T08:34:31.481Z,25.52
2016-08-31T08:35:30.828Z,25.76
2016-08-31T08:36:32.214Z,25.9
2016-08-31T08:37:31.503Z,26.13
2016-08-31T08:38:30.854Z,26.28
2016-08-31T08:39:31.682Z,26.3
2016-08-31T08:40:31.934Z,26.39
2016-08-31T08:41:31.536Z,26.47
2016-08-31T08:42:32.496Z,26.47
2016-08-31T08:43:31.551Z,26.45
2016-08-31T08:44:32.271Z,26.54
2016-08-31T08:45:32.275Z,26.51
2016-08-31T08:46:30.867Z,26.48
2016-08-31T08:47:30.881Z,26.44
2016-08-31T08:48:32.347Z,26.44
2016-08-31T08:49:32.301Z,26.43
2016-08-31T08:50:32.315Z,26.4
2016-08-31T08:51:31.509Z,26.35
2016-08-31T08:52:32.331Z,26.43
2016-08-31T08:53:32.849Z,26.3
2016-08-31T08:54:32.342Z,26.29
2016-08-31T08:55:31.647Z,26.2
2016-08-31T08:56:31.653Z,26.13
2016-08-31T08:57:31.672Z,26.07
2016-08-31T08:58:30.960Z,26.13
2016-08-31T08:59:32.382Z,26.07
2016-08-31T09:00:30.978Z,26.07
2016-08-31T09:01:31.741Z,26.15
2016-08-31T09:02:31.713Z,26.07
2016-08-31T09:03:32.414Z,26.1
2016-08-31T09:04:32.267Z,26.12
2016-08-31T09:05:31.017Z,26.13
2016-08-31T09:06:32.497Z,26.02
2016-08-31T09:07:31.033Z,26.01
2016-08-31T09:08:31.044Z,25.98
2016-08-31T09:09:32.516Z,25.99
2016-08-31T09:10:31.820Z,26.02
2016-08-31T09:11:31.773Z,26.06
2016-08-31T09:12:31.834Z,26.07
2016-08-31T09:13:32.504Z,26.12
2016-08-31T09:14:31.801Z,26.09
2016-08-31T09:15:32.700Z,26.09
2016-08-31T09:16:32.534Z,26.07
2016-08-31T09:17:31.831Z,26.06
2016-08-31T09:18:31.828Z,26.05
2016-08-31T09:19:32.543Z,25.95
2016-08-31T09:20:31.147Z,26.06
2016-08-31T09:21:31.863Z,26.12
2016-08-31T09:22:31.871Z,26.07
2016-08-31T09:23:32.578Z,26.06
2016-08-31T09:24:32.582Z,26.13
2016-08-31T09:25:31.889Z,26.09
2016-08-31T09:26:32.046Z,26.1
2016-08-31T09:27:32.613Z,26.12
2016-08-31T09:28:31.915Z,26.07
2016-08-31T09:29:32.624Z,26.06
2016-08-31T09:30:31.980Z,26.17
2016-08-31T09:31:32.645Z,25.87
2016-08-31T09:32:32.587Z,25.76
2016-08-31T09:33:31.952Z,25.9
2016-08-31T09:34:31.954Z,25.99
2016-08-31T09:35:32.727Z,26.1
2016-08-31T09:36:31.272Z,26.17
2016-08-31T09:37:33.141Z,26.18
2016-08-31T09:38:32.039Z,26.23
2016-08-31T09:39:33.752Z,26.21
2016-08-31T09:40:32.712Z,26.2
2016-08-31T09:41:31.305Z,26.18
2016-08-31T09:42:31.316Z,26.26
2016-08-31T09:43:32.026Z,26.28
2016-08-31T09:44:32.033Z,26.28
2016-08-31T09:45:32.046Z,26.21
2016-08-31T09:46:32.051Z,26.32
2016-08-31T09:47:32.767Z,26.21
2016-08-31T09:48:31.866Z,26.18
2016-08-31T09:49:32.080Z,26.2
2016-08-31T09:50:31.380Z,26.2
2016-08-31T09:51:31.385Z,26.28
2016-08-31T09:52:32.494Z,26.23
2016-08-31T09:53:32.158Z,26.23
2016-08-31T09:54:32.825Z,26.18
2016-08-31T09:55:32.889Z,26.15
2016-08-31T09:56:32.132Z,26.09
2016-08-31T09:57:32.143Z,26.13
2016-08-31T09:58:31.447Z,26.12
2016-08-31T09:59:32.360Z,26.1
2016-08-31T10:00:32.269Z,26.2
2016-08-31T10:01:33.747Z,26.15
2016-08-31T10:02:32.893Z,26.15
2016-08-31T10:03:32.947Z,26.12
2016-08-31T10:04:32.201Z,26.18
2016-08-31T10:05:32.969Z,26.12
2016-08-31T10:06:32.921Z,26.12
2016-08-31T10:07:32.277Z,26.13
2016-08-31T10:08:32.236Z,26.17
2016-08-31T10:09:32.241Z,26.02
2016-08-31T10:10:33.032Z,26.12
2016-08-31T10:11:33.015Z,26.07
2016-08-31T10:12:33.519Z,26.2
2016-08-31T10:13:31.620Z,26.13
2016-08-31T10:14:33.037Z,26.3
2016-08-31T10:15:32.497Z,26.25
2016-08-31T10:16:32.301Z,26.3
2016-08-31T10:17:33.024Z,26.29
2016-08-31T10:18:32.323Z,26.29
2016-08-31T10:19:32.393Z,26.32
2016-08-31T10:20:32.402Z,26.35
2016-08-31T10:21:33.047Z,26.39
2016-08-31T10:22:33.059Z,26.35
2016-08-31T10:23:34.064Z,26.29
2016-08-31T10:24:32.367Z,26.28
2016-08-31T10:25:32.678Z,26.2
2016-08-31T10:26:33.093Z,26.21
2016-08-31T10:27:31.692Z,26.2
2016-08-31T10:28:32.402Z,26.18
2016-08-31T10:29:32.418Z,26.17
2016-08-31T10:30:31.763Z,26.13
2016-08-31T10:31:33.136Z,26.13
2016-08-31T10:32:32.435Z,26.2
2016-08-31T10:33:32.444Z,26.21
2016-08-31T10:34:33.908Z,26.25
2016-08-31T10:35:32.467Z,26.26
2016-08-31T10:36:33.068Z,26.18
2016-08-31T10:37:32.478Z,26.17
2016-08-31T10:38:31.830Z,26.29
2016-08-31T10:39:31.785Z,26.3
2016-08-31T10:40:33.554Z,26.26
2016-08-31T10:41:32.564Z,26.29
2016-08-31T10:42:32.570Z,26.33
2016-08-31T10:43:33.282Z,26.32
2016-08-31T10:44:32.534Z,26.37
2016-08-31T10:45:33.316Z,26.33
2016-08-31T10:46:32.562Z,26.39
2016-08-31T10:47:32.818Z,26.3
2016-08-31T10:48:32.628Z,26.3
2016-08-31T10:49:32.581Z,26.3
2016-08-31T10:50:31.911Z,26.32
2016-08-31T10:51:32.664Z,26.33
2016-08-31T10:52:33.310Z,26.37
2016-08-31T10:53:32.611Z,26.39
2016-08-31T10:54:33.376Z,26.36
2016-08-31T10:55:31.947Z,26.36
2016-08-31T10:56:33.398Z,26.36
2016-08-31T10:57:32.648Z,26.44
2016-08-31T10:58:33.661Z,26.44
2016-08-31T10:59:33.369Z,26.33
2016-08-31T11:00:34.279Z,26.28
2016-08-31T11:01:32.679Z,26.37
2016-08-31T11:02:31.980Z,26.17
2016-08-31T11:03:33.400Z,26.07
2016-08-31T11:04:32.701Z,26.18
2016-08-31T11:05:33.416Z,26.28
2016-08-31T11:06:33.425Z,26.36
2016-08-31T11:07:33.582Z,26.32
2016-08-31T11:08:32.730Z,26.26
2016-08-31T11:09:32.903Z,26.35
2016-08-31T11:10:32.035Z,26.35
2016-08-31T11:11:34.026Z,26.39
2016-08-31T11:12:32.761Z,26.37
2016-08-31T11:13:32.880Z,26.4
2016-08-31T11:14:33.502Z,26.51
2016-08-31T11:15:33.487Z,26.45
2016-08-31T11:16:33.541Z,26.4
2016-08-31T11:17:32.089Z,26.32
2016-08-31T11:18:33.551Z,26.32
2016-08-31T11:19:32.102Z,26.28
2016-08-31T11:20:33.875Z,26.23
2016-08-31T11:21:33.527Z,26.13
2016-08-31T11:22:34.676Z,26.21
2016-08-31T11:23:32.834Z,26.26
2016-08-31T11:24:32.132Z,26.26
2016-08-31T11:25:33.658Z,26.26
2016-08-31T11:26:33.563Z,26.3
2016-08-31T11:27:32.154Z,26.32
2016-08-31T11:28:32.872Z,26.15
2016-08-31T11:29:32.883Z,26.26
2016-08-31T11:30:33.592Z,26.3
2016-08-31T11:31:33.139Z,26.23
2016-08-31T11:32:33.608Z,26.26
2016-08-31T11:33:34.035Z,26.29
2016-08-31T11:34:32.206Z,26.26
2016-08-31T11:35:33.630Z,26.21
2016-08-31T11:36:32.929Z,26.29
2016-08-31T11:37:32.933Z,26.23
2016-08-31T11:38:32.341Z,26.29
2016-08-31T11:39:33.002Z,26.23
2016-08-31T11:40:33.671Z,26.18
2016-08-31T11:41:32.259Z,26.2
2016-08-31T11:42:33.024Z,26.09
2016-08-31T11:43:33.740Z,26.21
2016-08-31T11:44:32.279Z,26.13
2016-08-31T11:45:33.702Z,26.2
2016-08-31T11:46:33.413Z,26.13
2016-08-31T11:47:32.300Z,26.13
2016-08-31T11:48:33.105Z,26.26
2016-08-31T11:49:33.022Z,26.32
2016-08-31T11:50:33.055Z,26.26
2016-08-31T11:51:33.748Z,26.23
2016-08-31T11:52:33.829Z,26.21
2016-08-31T11:53:33.062Z,26.23
2016-08-31T11:54:33.060Z,26.3
2016-08-31T11:55:32.362Z,26.28
2016-08-31T11:56:33.621Z,26.35
2016-08-31T11:57:33.380Z,26.28
2016-08-31T11:58:33.089Z,26.25
2016-08-31T11:59:33.814Z,26.23
2016-08-31T12:00:33.802Z,26.18
2016-08-31T12:01:32.404Z,26.28
2016-08-31T12:02:33.816Z,26.28
2016-08-31T12:03:33.833Z,26.13
2016-08-31T12:04:33.125Z,26.12
2016-08-31T12:05:33.130Z,26.12
2016-08-31T12:06:34.411Z,26.12
2016-08-31T12:07:33.150Z,26.15
2016-08-31T12:08:33.855Z,26.29
2016-08-31T12:09:33.153Z,26.26
2016-08-31T12:10:33.872Z,26.2
2016-08-31T12:11:32.461Z,26.32
2016-08-31T12:12:32.466Z,26.26
2016-08-31T12:13:33.931Z,26.35
2016-08-31T12:14:33.236Z,26.29
2016-08-31T12:15:33.897Z,26.32
2016-08-31T12:16:33.251Z,26.25
2016-08-31T12:17:34.023Z,26.28
2016-08-31T12:18:32.552Z,26.4
2016-08-31T12:19:33.994Z,26.37
2016-08-31T12:20:33.246Z,26.37
2016-08-31T12:21:33.232Z,26.32
2016-08-31T12:22:33.942Z,26.21
2016-08-31T12:23:32.538Z,26.23
2016-08-31T12:24:33.252Z,26.29
2016-08-31T12:25:32.553Z,26.35
2016-08-31T12:26:32.557Z,26.36
2016-08-31T12:27:34.821Z,26.4
2016-08-31T12:28:35.277Z,26.35
2016-08-31T12:29:33.283Z,26.4
2016-08-31T12:30:34.051Z,26.3
2016-08-31T12:31:33.312Z,26.44
2016-08-31T12:32:35.014Z,26.39
2016-08-31T12:33:32.656Z,26.45
2016-08-31T12:34:33.357Z,26.45
2016-08-31T12:35:34.034Z,26.32
2016-08-31T12:36:33.386Z,26.33
2016-08-31T12:37:33.458Z,26.32
2016-08-31T12:38:34.044Z,26.32
2016-08-31T12:39:33.449Z,26.33
2016-08-31T12:40:33.356Z,26.35
2016-08-31T12:41:33.383Z,26.37
2016-08-31T12:42:33.370Z,26.47
2016-08-31T12:43:34.530Z,26.44
2016-08-31T12:44:33.508Z,26.47
2016-08-31T12:45:33.588Z,26.48
2016-08-31T12:46:33.400Z,26.57
2016-08-31T12:47:33.412Z,26.51
2016-08-31T12:48:33.413Z,26.51
2016-08-31T12:49:34.125Z,26.39
2016-08-31T12:50:34.135Z,26.47
2016-08-31T12:51:33.454Z,26.33
2016-08-31T12:52:33.502Z,26.4
2016-08-31T12:53:34.156Z,26.47
2016-08-31T12:54:34.582Z,26.52
2016-08-31T12:55:46.381Z,26.45
2016-08-31T12:56:34.492Z,26.48
2016-08-31T12:57:34.187Z,26.37